Skip Navigation LinksHome page > Weather > Current weather Skip Navigation Links

Current Weather

Frederick Muni, Frederick, Md.

For information only: do not use for flight planning or navigation.
Latest weather
Observation time Tuesday, January 19, 2021 3:15 AM EST
Local time Tuesday, January 19, 2021 3:38 AM EST
Flight conditions Visual Meteorological Conditions
Winds
Wind speed calm
Visibility 10 mi.
Sky condition
Ceiling 4,000 ft. overcast
Cloud layer overcast 4,000 ft.
Temperature 34°F
Dewpoint 27°F
Altimeter 30.10 in.Hg
Derived measurements
Relative humidity 75%
Wind chill 34°F
Density altitude -1534 ft.
Remarks
Fully automated report.
Automated weather observing station with precipitation discriminator.
METAR KFDK 190815Z AUTO 00000KT 10SM OVC040 01/M03 A3010 RMK AO2

Settings

Location code

InnerDrive.Weather 4.0.6770.0 Release CLR 4.0.30319.42000
Copyright ©2018 Inner Drive Technology. All rights reserved. Portions Copyright ©1986-2018 David Braverman.

Find weather

Site navigation


Skip Navigation Links

Place info

Page info

PayPal - The safer, easier way to pay online!

Return home.

Copyright ©2021 Inner Drive Technology. Purveyors of fine, hand-crafted computer software. Page printed 2021-01-19T08:38:51 UTC.